createdAt,value
2022-12-08T00:06:10.674Z,3.41
2022-12-08T00:16:13.731Z,3.26
2022-12-08T00:26:17.881Z,3.36
2022-12-08T00:36:20.616Z,3.38
2022-12-08T00:46:24.722Z,3.38
2022-12-08T00:56:27.839Z,3.30
2022-12-08T01:06:31.976Z,3.34
2022-12-08T01:16:37.076Z,3.24
2022-12-08T01:26:41.768Z,3.25
2022-12-08T01:36:44.733Z,3.31
2022-12-08T01:46:49.197Z,3.25
2022-12-08T01:56:59.682Z,3.29
2022-12-08T02:07:08.149Z,3.27
2022-12-08T02:17:25.649Z,3.19
2022-12-08T02:27:44.135Z,3.30
2022-12-08T02:37:55.624Z,3.46
2022-12-08T02:47:59.965Z,3.31
2022-12-08T02:58:30.868Z,3.13
2022-12-08T03:08:40.459Z,3.20
2022-12-08T03:18:51.061Z,3.00
2022-12-08T03:28:53.977Z,3.14
2022-12-08T03:38:58.039Z,2.98
2022-12-08T03:49:01.021Z,3.18
2022-12-08T03:59:06.205Z,3.02
2022-12-08T04:09:08.911Z,3.06
2022-12-08T04:19:12.899Z,3.06
2022-12-08T04:29:15.659Z,2.93
2022-12-08T04:39:19.829Z,2.91
2022-12-08T04:49:22.523Z,2.82
2022-12-08T04:59:26.633Z,2.91
2022-12-08T05:09:30.293Z,2.86
2022-12-08T05:19:34.343Z,2.84
2022-12-08T05:29:37.095Z,2.93
2022-12-08T05:39:41.187Z,3.02
2022-12-08T05:49:43.868Z,2.84
2022-12-08T05:59:47.916Z,2.71
2022-12-08T06:09:50.580Z,2.68
2022-12-08T06:19:54.629Z,2.76
2022-12-08T06:29:57.563Z,2.78
2022-12-08T06:40:02.093Z,2.65
2022-12-08T06:50:06.287Z,2.52
2022-12-08T07:00:12.376Z,2.57
2022-12-08T07:10:15.067Z,2.51
2022-12-08T07:20:19.332Z,2.69
2022-12-08T07:30:22.030Z,2.68
2022-12-08T07:40:26.049Z,2.61
2022-12-08T07:50:28.800Z,2.66
2022-12-08T08:00:32.813Z,2.50
2022-12-08T08:10:35.497Z,2.36
2022-12-08T08:20:39.529Z,2.35
2022-12-08T08:30:42.371Z,2.36
2022-12-08T08:40:46.653Z,2.23
2022-12-08T08:50:49.363Z,2.21
2022-12-08T09:00:53.423Z,2.19
2022-12-08T09:10:57.030Z,2.43
2022-12-08T09:21:06.822Z,2.60
2022-12-08T09:31:09.561Z,2.60
2022-12-08T09:41:17.589Z,2.73
2022-12-08T09:51:20.633Z,2.98
2022-12-08T10:01:28.590Z,3.31
2022-12-08T10:11:40.321Z,3.52
2022-12-08T10:21:44.365Z,3.74
2022-12-08T10:31:47.171Z,3.97
2022-12-08T10:41:52.638Z,4.27
2022-12-08T10:51:55.381Z,4.36
2022-12-08T11:02:01.125Z,4.37
2022-12-08T11:12:09.084Z,4.46
2022-12-08T11:22:25.061Z,5.18
2022-12-08T11:32:27.718Z,4.84
2022-12-08T11:42:36.310Z,5.06
2022-12-08T11:52:46.050Z,5.19
2022-12-08T12:02:57.483Z,5.26
2022-12-08T12:13:10.755Z,5.71
2022-12-08T12:23:20.730Z,7.10
2022-12-08T12:33:24.127Z,15.67
2022-12-08T12:43:32.668Z,16.70
2022-12-08T12:53:50.264Z,17.89
2022-12-08T13:04:05.847Z,15.48
2022-12-08T13:14:33.451Z,14.55
2022-12-08T13:24:37.607Z,9.40
2022-12-08T13:34:42.473Z,10.22
2022-12-08T13:45:19.104Z,10.81
2022-12-08T14:16:07.237Z,6.39
2022-12-08T14:26:13.839Z,5.96
2022-12-08T14:36:18.191Z,5.31
2022-12-08T14:46:23.800Z,4.97
2022-12-08T14:56:29.496Z,4.74
2022-12-08T15:06:33.710Z,4.43
2022-12-08T15:16:42.793Z,4.09
2022-12-08T15:26:48.923Z,3.75
2022-12-08T15:36:53.459Z,3.53
2022-12-08T15:46:58.996Z,3.26
2022-12-08T16:07:27.967Z,3.09
2022-12-08T16:17:31.073Z,3.10
2022-12-08T16:38:01.072Z,2.78
2022-12-08T16:48:05.548Z,2.56
2022-12-08T16:58:08.294Z,2.32
2022-12-08T17:08:13.923Z,2.15
2022-12-08T17:18:16.629Z,2.08
2022-12-08T17:28:37.286Z,2.05
2022-12-08T17:38:43.747Z,2.02
2022-12-08T17:48:47.953Z,1.79
2022-12-08T17:58:54.679Z,1.65
2022-12-08T18:09:00.101Z,1.62
2022-12-08T18:19:02.770Z,1.54
2022-12-08T18:29:06.937Z,1.40
2022-12-08T18:39:22.455Z,1.32
2022-12-08T18:49:26.549Z,1.28
2022-12-08T18:59:29.240Z,1.28
2022-12-08T19:09:33.261Z,1.28
2022-12-08T19:19:36.417Z,1.28
2022-12-08T19:29:40.438Z,1.18
2022-12-08T19:40:00.488Z,1.10
2022-12-08T19:50:23.591Z,1.01
2022-12-08T20:00:26.637Z,0.92
2022-12-08T20:10:33.816Z,0.68
2022-12-08T20:20:36.623Z,0.60
2022-12-08T20:30:42.031Z,0.58
2022-12-08T20:40:47.236Z,0.50
2022-12-08T20:50:53.134Z,0.50
2022-12-08T21:00:56.028Z,0.46
2022-12-08T21:11:00.249Z,0.42
2022-12-08T21:21:04.566Z,0.29
2022-12-08T21:31:09.881Z,0.17
2022-12-08T21:41:14.581Z,0.12
2022-12-08T21:51:18.847Z,0.02
2022-12-08T22:01:21.556Z,0.06
2022-12-08T22:11:26.078Z,-0.07
2022-12-08T22:21:29.389Z,-0.11
2022-12-08T22:31:33.530Z,-0.12
2022-12-08T22:41:37.057Z,-0.16
2022-12-08T22:51:41.258Z,-0.34
2022-12-08T23:01:44.053Z,-0.30
2022-12-08T23:11:48.497Z,-0.23
2022-12-08T23:21:51.702Z,0.01
2022-12-08T23:31:56.145Z,0.25
2022-12-08T23:41:58.894Z,0.36
2022-12-08T23:52:03.118Z,0.43
